sensor_id;sensor_type;location;lat;lon;timestamp;pressure;altitude;pressure_sealevel;temperature;humidity
20630;BME280;17386;43.846;25.950;2022-07-17T00:00:49;101307.91;;;25.32;60.59
20630;BME280;17386;43.846;25.950;2022-07-17T00:03:16;101306.84;;;25.03;60.29
20630;BME280;17386;43.846;25.950;2022-07-17T00:05:44;101310.66;;;25.12;60.18
20630;BME280;17386;43.846;25.950;2022-07-17T00:08:11;101313.50;;;25.10;60.82
20630;BME280;17386;43.846;25.950;2022-07-17T00:10:39;101316.84;;;25.14;60.98
20630;BME280;17386;43.846;25.950;2022-07-17T00:13:06;101312.13;;;25.16;61.03
20630;BME280;17386;43.846;25.950;2022-07-17T00:15:33;101311.66;;;25.10;61.21
20630;BME280;17386;43.846;25.950;2022-07-17T00:17:59;101316.97;;;25.12;61.40
20630;BME280;17386;43.846;25.950;2022-07-17T00:20:26;101314.66;;;25.07;60.88
20630;BME280;17386;43.846;25.950;2022-07-17T00:22:52;101319.94;;;25.09;60.67
20630;BME280;17386;43.846;25.950;2022-07-17T00:25:19;101319.00;;;24.99;60.64
20630;BME280;17386;43.846;25.950;2022-07-17T00:27:45;101332.38;;;24.70;62.40
20630;BME280;17386;43.846;25.950;2022-07-17T00:30:10;101332.28;;;24.71;62.67
20630;BME280;17386;43.846;25.950;2022-07-17T00:32:37;101319.94;;;24.67;62.77
20630;BME280;17386;43.846;25.950;2022-07-17T00:35:03;101337.41;;;24.53;63.02
20630;BME280;17386;43.846;25.950;2022-07-17T00:37:29;101332.91;;;24.64;63.00
20630;BME280;17386;43.846;25.950;2022-07-17T00:39:54;101338.09;;;24.67;62.45
20630;BME280;17386;43.846;25.950;2022-07-17T00:42:20;101338.81;;;24.69;61.75
20630;BME280;17386;43.846;25.950;2022-07-17T00:44:45;101331.13;;;24.53;62.45
20630;BME280;17386;43.846;25.950;2022-07-17T00:47:19;101338.03;;;24.57;62.86
20630;BME280;17386;43.846;25.950;2022-07-17T00:49:46;101330.13;;;24.54;62.94
20630;BME280;17386;43.846;25.950;2022-07-17T00:52:12;101331.13;;;24.53;62.49
20630;BME280;17386;43.846;25.950;2022-07-17T00:54:39;101338.00;;;24.25;63.01
20630;BME280;17386;43.846;25.950;2022-07-17T00:57:07;101339.09;;;24.34;62.80
20630;BME280;17386;43.846;25.950;2022-07-17T00:59:33;101343.66;;;24.33;63.28
20630;BME280;17386;43.846;25.950;2022-07-17T01:02:03;101329.56;;;24.39;62.80
20630;BME280;17386;43.846;25.950;2022-07-17T01:04:31;101333.78;;;24.21;63.59
20630;BME280;17386;43.846;25.950;2022-07-17T01:06:57;101333.16;;;24.28;63.47
20630;BME280;17386;43.846;25.950;2022-07-17T01:09:23;101346.13;;;24.36;63.33
20630;BME280;17386;43.846;25.950;2022-07-17T01:11:49;101345.88;;;24.39;63.69
20630;BME280;17386;43.846;25.950;2022-07-17T01:14:16;101349.31;;;24.41;63.93
20630;BME280;17386;43.846;25.950;2022-07-17T01:16:42;101353.63;;;24.44;64.31
20630;BME280;17386;43.846;25.950;2022-07-17T01:19:10;101360.50;;;24.48;64.59
20630;BME280;17386;43.846;25.950;2022-07-17T01:21:42;101348.66;;;24.49;65.01
20630;BME280;17386;43.846;25.950;2022-07-17T01:24:08;101351.78;;;24.44;65.04
20630;BME280;17386;43.846;25.950;2022-07-17T01:26:34;101357.06;;;24.46;63.98
20630;BME280;17386;43.846;25.950;2022-07-17T01:29:00;101354.38;;;24.35;63.36
20630;BME280;17386;43.846;25.950;2022-07-17T01:31:25;101357.84;;;24.25;62.42
20630;BME280;17386;43.846;25.950;2022-07-17T01:33:51;101357.38;;;24.20;62.15
20630;BME280;17386;43.846;25.950;2022-07-17T01:36:22;101361.69;;;24.23;61.52
20630;BME280;17386;43.846;25.950;2022-07-17T01:38:48;101359.50;;;24.17;61.10
20630;BME280;17386;43.846;25.950;2022-07-17T01:41:14;101357.66;;;24.06;61.01
20630;BME280;17386;43.846;25.950;2022-07-17T01:43:39;101353.50;;;24.02;60.92
20630;BME280;17386;43.846;25.950;2022-07-17T01:46:05;101360.75;;;24.01;61.12
20630;BME280;17386;43.846;25.950;2022-07-17T01:48:30;101350.88;;;24.00;61.22
20630;BME280;17386;43.846;25.950;2022-07-17T01:50:56;101358.44;;;23.97;61.09
20630;BME280;17386;43.846;25.950;2022-07-17T01:53:21;101351.78;;;23.90;61.25
20630;BME280;17386;43.846;25.950;2022-07-17T01:55:47;101361.00;;;23.87;60.99
20630;BME280;17386;43.846;25.950;2022-07-17T01:58:14;101372.34;;;23.92;61.46
20630;BME280;17386;43.846;25.950;2022-07-17T02:00:39;101373.34;;;23.91;61.72
20630;BME280;17386;43.846;25.950;2022-07-17T02:03:05;101365.06;;;23.93;62.17
20630;BME280;17386;43.846;25.950;2022-07-17T02:05:30;101373.22;;;23.93;61.42
20630;BME280;17386;43.846;25.950;2022-07-17T02:07:56;101366.81;;;23.94;60.30
20630;BME280;17386;43.846;25.950;2022-07-17T02:10:22;101372.34;;;23.92;60.25
20630;BME280;17386;43.846;25.950;2022-07-17T02:12:47;101369.56;;;23.83;59.61
20630;BME280;17386;43.846;25.950;2022-07-17T02:15:13;101372.00;;;23.86;59.70
20630;BME280;17386;43.846;25.950;2022-07-17T02:17:40;101374.72;;;23.86;58.49
20630;BME280;17386;43.846;25.950;2022-07-17T02:20:07;101373.63;;;23.88;58.06
20630;BME280;17386;43.846;25.950;2022-07-17T02:22:33;101375.72;;;23.85;57.43
20630;BME280;17386;43.846;25.950;2022-07-17T02:24:59;101374.72;;;23.86;56.92
20630;BME280;17386;43.846;25.950;2022-07-17T02:27:24;101375.72;;;23.85;57.63
20630;BME280;17386;43.846;25.950;2022-07-17T02:29:50;101371.13;;;23.85;58.18
20630;BME280;17386;43.846;25.950;2022-07-17T02:32:15;101379.03;;;23.88;58.90
20630;BME280;17386;43.846;25.950;2022-07-17T02:34:41;101386.19;;;23.89;59.88
20630;BME280;17386;43.846;25.950;2022-07-17T02:37:06;101383.56;;;23.88;61.00
20630;BME280;17386;43.846;25.950;2022-07-17T02:39:32;101375.47;;;23.77;61.84
20630;BME280;17386;43.846;25.950;2022-07-17T02:41:57;101380.88;;;23.54;62.80
20630;BME280;17386;43.846;25.950;2022-07-17T02:44:23;101376.44;;;23.42;63.17
20630;BME280;17386;43.846;25.950;2022-07-17T02:46:48;101390.06;;;23.18;64.52
20630;BME280;17386;43.846;25.950;2022-07-17T02:49:14;101391.84;;;22.95;65.27
20630;BME280;17386;43.846;25.950;2022-07-17T02:51:40;101396.53;;;22.93;65.47
20630;BME280;17386;43.846;25.950;2022-07-17T02:54:06;101398.41;;;23.04;65.84
20630;BME280;17386;43.846;25.950;2022-07-17T02:56:31;101399.53;;;23.12;65.78
20630;BME280;17386;43.846;25.950;2022-07-17T02:58:57;101409.28;;;23.15;66.88
20630;BME280;17386;43.846;25.950;2022-07-17T03:01:22;101414.56;;;23.16;67.53
20630;BME280;17386;43.846;25.950;2022-07-17T03:03:47;101419.38;;;23.13;68.10
20630;BME280;17386;43.846;25.950;2022-07-17T03:06:13;101412.03;;;22.91;65.68
20630;BME280;17386;43.846;25.950;2022-07-17T03:08:38;101417.22;;;22.94;65.97
20630;BME280;17386;43.846;25.950;2022-07-17T03:11:04;101413.00;;;22.90;65.75
20630;BME280;17386;43.846;25.950;2022-07-17T03:13:29;101415.72;;;22.90;65.32
20630;BME280;17386;43.846;25.950;2022-07-17T03:15:55;101421.28;;;22.88;63.55
20630;BME280;17386;43.846;25.950;2022-07-17T03:18:20;101416.72;;;22.89;63.36
20630;BME280;17386;43.846;25.950;2022-07-17T03:20:46;101422.00;;;22.90;62.76
20630;BME280;17386;43.846;25.950;2022-07-17T03:23:11;101423.72;;;22.91;62.61
20630;BME280;17386;43.846;25.950;2022-07-17T03:25:36;101429.78;;;22.95;61.48
20630;BME280;17386;43.846;25.950;2022-07-17T03:28:02;101430.53;;;22.97;61.20
20630;BME280;17386;43.846;25.950;2022-07-17T03:30:27;101445.66;;;22.88;61.90
20630;BME280;17386;43.846;25.950;2022-07-17T03:32:53;101446.34;;;22.79;62.38
20630;BME280;17386;43.846;25.950;2022-07-17T03:35:18;101445.53;;;22.66;61.74
20630;BME280;17386;43.846;25.950;2022-07-17T03:37:44;101452.13;;;22.62;61.69
20630;BME280;17386;43.846;25.950;2022-07-17T03:40:10;101456.88;;;22.47;61.81
20630;BME280;17386;43.846;25.950;2022-07-17T03:42:36;101462.41;;;22.46;62.24
20630;BME280;17386;43.846;25.950;2022-07-17T03:45:01;101452.97;;;22.51;62.52
20630;BME280;17386;43.846;25.950;2022-07-17T03:47:27;101471.03;;;22.51;62.10
20630;BME280;17386;43.846;25.950;2022-07-17T03:49:52;101459.97;;;22.54;62.17
20630;BME280;17386;43.846;25.950;2022-07-17T03:52:18;101464.19;;;22.58;61.99
20630;BME280;17386;43.846;25.950;2022-07-17T03:54:43;101463.97;;;22.61;61.04
20630;BME280;17386;43.846;25.950;2022-07-17T03:57:08;101463.97;;;22.61;61.19
20630;BME280;17386;43.846;25.950;2022-07-17T03:59:34;101465.81;;;22.60;61.23
20630;BME280;17386;43.846;25.950;2022-07-17T04:01:59;101470.69;;;22.55;61.73
20630;BME280;17386;43.846;25.950;2022-07-17T04:04:26;101472.78;;;22.52;61.86
20630;BME280;17386;43.846;25.950;2022-07-17T04:06:51;101468.31;;;22.51;60.75
20630;BME280;17386;43.846;25.950;2022-07-17T04:09:16;101476.56;;;22.49;60.40
20630;BME280;17386;43.846;25.950;2022-07-17T04:11:42;101478.66;;;22.46;59.98
20630;BME280;17386;43.846;25.950;2022-07-17T04:14:07;101483.41;;;22.42;60.52
20630;BME280;17386;43.846;25.950;2022-07-17T04:16:33;101491.88;;;22.37;61.27
20630;BME280;17386;43.846;25.950;2022-07-17T04:18:58;101478.56;;;22.34;62.01
20630;BME280;17386;43.846;25.950;2022-07-17T04:21:24;101487.09;;;22.41;62.38
20630;BME280;17386;43.846;25.950;2022-07-17T04:23:49;101484.25;;;22.43;62.52
20630;BME280;17386;43.846;25.950;2022-07-17T04:26:15;101485.03;;;22.45;62.83
20630;BME280;17386;43.846;25.950;2022-07-17T04:28:40;101489.59;;;22.44;63.16
20630;BME280;17386;43.846;25.950;2022-07-17T04:31:06;101492.91;;;22.48;63.41
20630;BME280;17386;43.846;25.950;2022-07-17T04:33:32;101492.47;;;22.54;63.50
20630;BME280;17386;43.846;25.950;2022-07-17T04:35:57;101499.41;;;22.58;63.88
20630;BME280;17386;43.846;25.950;2022-07-17T04:38:23;101480.91;;;22.52;64.25
20630;BME280;17386;43.846;25.950;2022-07-17T04:40:48;101497.16;;;22.52;63.87
20630;BME280;17386;43.846;25.950;2022-07-17T04:43:13;101508.94;;;22.51;63.95
20630;BME280;17386;43.846;25.950;2022-07-17T04:45:39;101518.28;;;22.47;64.44
20630;BME280;17386;43.846;25.950;2022-07-17T04:48:05;101518.16;;;22.48;64.49
20630;BME280;17386;43.846;25.950;2022-07-17T04:50:30;101527.25;;;22.47;65.14
20630;BME280;17386;43.846;25.950;2022-07-17T04:52:56;101515.44;;;22.48;65.42
20630;BME280;17386;43.846;25.950;2022-07-17T04:55:22;101528.28;;;22.57;65.99
20630;BME280;17386;43.846;25.950;2022-07-17T04:57:47;101522.78;;;22.59;66.33
20630;BME280;17386;43.846;25.950;2022-07-17T05:00:13;101522.03;;;22.57;66.86
20630;BME280;17386;43.846;25.950;2022-07-17T05:02:40;101533.50;;;22.24;68.41
20630;BME280;17386;43.846;25.950;2022-07-17T05:05:06;101533.94;;;22.18;69.06
20630;BME280;17386;43.846;25.950;2022-07-17T05:07:31;101538.78;;;22.25;68.84
20630;BME280;17386;43.846;25.950;2022-07-17T05:09:57;101533.78;;;22.32;68.70
20630;BME280;17386;43.846;25.950;2022-07-17T05:12:22;101547.53;;;22.42;68.42
20630;BME280;17386;43.846;25.950;2022-07-17T05:14:48;101544.84;;;22.29;68.92
20630;BME280;17386;43.846;25.950;2022-07-17T05:17:13;101548.63;;;22.26;69.83
20630;BME280;17386;43.846;25.950;2022-07-17T05:19:39;101548.84;;;22.23;70.97
20630;BME280;17386;43.846;25.950;2022-07-17T05:22:04;101548.81;;;22.36;70.77
20630;BME280;17386;43.846;25.950;2022-07-17T05:24:30;101562.78;;;22.43;70.82
20630;BME280;17386;43.846;25.950;2022-07-17T05:26:57;101582.09;;;22.38;71.84
20630;BME280;17386;43.846;25.950;2022-07-17T05:29:22;101582.50;;;22.45;72.17
20630;BME280;17386;43.846;25.950;2022-07-17T05:31:48;101580.66;;;22.58;71.90
20630;BME280;17386;43.846;25.950;2022-07-17T05:34:13;101586.50;;;22.52;72.38
20630;BME280;17386;43.846;25.950;2022-07-17T05:36:39;101591.78;;;22.66;72.31
20630;BME280;17386;43.846;25.950;2022-07-17T05:39:04;101594.47;;;22.79;71.66
20630;BME280;17386;43.846;25.950;2022-07-17T05:41:30;101598.25;;;22.89;71.28
20630;BME280;17386;43.846;25.950;2022-07-17T05:43:56;101598.13;;;22.90;71.22
20630;BME280;17386;43.846;25.950;2022-07-17T05:46:21;101605.25;;;22.91;71.19
20630;BME280;17386;43.846;25.950;2022-07-17T05:48:47;101605.91;;;22.82;71.95
20630;BME280;17386;43.846;25.950;2022-07-17T05:51:12;101607.97;;;22.91;72.39
20630;BME280;17386;43.846;25.950;2022-07-17T05:53:37;101609.06;;;22.89;70.91
20630;BME280;17386;43.846;25.950;2022-07-17T05:56:03;101605.75;;;22.73;71.38
20630;BME280;17386;43.846;25.950;2022-07-17T05:58:28;101599.97;;;22.90;70.97
20630;BME280;17386;43.846;25.950;2022-07-17T06:00:54;101601.34;;;23.19;70.05
20630;BME280;17386;43.846;25.950;2022-07-17T06:03:19;101603.66;;;23.37;68.74
20630;BME280;17386;43.846;25.950;2022-07-17T06:05:45;101604.81;;;23.45;68.63
20630;BME280;17386;43.846;25.950;2022-07-17T06:08:10;101613.81;;;23.46;68.25
20630;BME280;17386;43.846;25.950;2022-07-17T06:10:36;101612.06;;;23.34;67.70
20630;BME280;17386;43.846;25.950;2022-07-17T06:13:03;101613.34;;;23.52;66.79
20630;BME280;17386;43.846;25.950;2022-07-17T06:15:28;101612.22;;;23.43;66.04
20630;BME280;17386;43.846;25.950;2022-07-17T06:17:54;101605.00;;;23.31;65.88
20630;BME280;17386;43.846;25.950;2022-07-17T06:20:19;101599.63;;;23.42;66.38
20630;BME280;17386;43.846;25.950;2022-07-17T06:22:45;101599.75;;;23.65;66.83
20630;BME280;17386;43.846;25.950;2022-07-17T06:25:11;101601.66;;;23.87;66.57
20630;BME280;17386;43.846;25.950;2022-07-17T06:27:41;101599.97;;;23.97;65.52
20630;BME280;17386;43.846;25.950;2022-07-17T06:30:08;101590.94;;;24.08;65.44
20630;BME280;17386;43.846;25.950;2022-07-17T06:32:34;101593.06;;;24.15;65.74
20630;BME280;17386;43.846;25.950;2022-07-17T06:34:59;101598.72;;;23.90;66.70
20630;BME280;17386;43.846;25.950;2022-07-17T06:37:25;101599.38;;;24.16;66.52
20630;BME280;17386;43.846;25.950;2022-07-17T06:39:50;101602.81;;;24.29;66.24
20630;BME280;17386;43.846;25.950;2022-07-17T06:42:16;101602.25;;;24.37;66.23
20630;BME280;17386;43.846;25.950;2022-07-17T06:44:41;101604.47;;;24.54;65.44
20630;BME280;17386;43.846;25.950;2022-07-17T06:47:06;101603.09;;;24.48;65.77
20630;BME280;17386;43.846;25.950;2022-07-17T06:49:32;101605.09;;;24.35;66.24
20630;BME280;17386;43.846;25.950;2022-07-17T06:51:57;101602.00;;;24.51;65.71
20630;BME280;17386;43.846;25.950;2022-07-17T06:54:23;101603.34;;;24.79;65.18
20630;BME280;17386;43.846;25.950;2022-07-17T06:56:51;101604.28;;;25.00;63.85
20630;BME280;17386;43.846;25.950;2022-07-17T06:59:17;101612.69;;;25.20;63.24
20630;BME280;17386;43.846;25.950;2022-07-17T07:01:42;101609.38;;;25.37;62.81
20630;BME280;17386;43.846;25.950;2022-07-17T07:04:08;101610.41;;;25.57;61.99
20630;BME280;17386;43.846;25.950;2022-07-17T07:06:33;101611.16;;;25.59;61.07
20630;BME280;17386;43.846;25.950;2022-07-17T07:08:59;101612.91;;;25.60;61.18
20630;BME280;17386;43.846;25.950;2022-07-17T07:11:25;101600.44;;;25.78;61.03
20630;BME280;17386;43.846;25.950;2022-07-17T07:13:50;101601.44;;;25.98;60.31
20630;BME280;17386;43.846;25.950;2022-07-17T07:16:15;101602.97;;;26.12;59.17
20630;BME280;17386;43.846;25.950;2022-07-17T07:18:41;101592.56;;;26.27;58.87
20630;BME280;17386;43.846;25.950;2022-07-17T07:21:07;101600.16;;;26.44;58.23
20630;BME280;17386;43.846;25.950;2022-07-17T07:23:33;101592.44;;;26.49;58.29
20630;BME280;17386;43.846;25.950;2022-07-17T07:25:58;101590.69;;;26.48;58.65
20630;BME280;17386;43.846;25.950;2022-07-17T07:28:24;101590.69;;;26.48;58.33
20630;BME280;17386;43.846;25.950;2022-07-17T07:30:49;101588.97;;;26.47;57.88
20630;BME280;17386;43.846;25.950;2022-07-17T07:33:15;101593.28;;;26.50;58.31
20630;BME280;17386;43.846;25.950;2022-07-17T07:35:41;101591.69;;;26.47;58.40
20630;BME280;17386;43.846;25.950;2022-07-17T07:38:07;101590.44;;;26.51;58.19
20630;BME280;17386;43.846;25.950;2022-07-17T07:40:33;101591.91;;;26.65;57.32
20630;BME280;17386;43.846;25.950;2022-07-17T07:42:59;101599.97;;;26.76;55.32
20630;BME280;17386;43.846;25.950;2022-07-17T07:45:24;101590.25;;;26.93;56.33
20630;BME280;17386;43.846;25.950;2022-07-17T07:47:50;101591.75;;;27.07;54.76
20630;BME280;17386;43.846;25.950;2022-07-17T07:50:16;101594.34;;;27.18;53.58
20630;BME280;17386;43.846;25.950;2022-07-17T07:52:43;101595.78;;;27.41;53.14
20630;BME280;17386;43.846;25.950;2022-07-17T07:55:10;101591.34;;;27.50;50.99
20630;BME280;17386;43.846;25.950;2022-07-17T07:57:35;101592.22;;;27.60;49.87
20630;BME280;17386;43.846;25.950;2022-07-17T08:00:04;101603.84;;;27.82;47.57
20630;BME280;17386;43.846;25.950;2022-07-17T08:02:29;101588.28;;;27.92;46.92
20630;BME280;17386;43.846;25.950;2022-07-17T08:04:55;101598.16;;;28.12;45.74
20630;BME280;17386;43.846;25.950;2022-07-17T08:07:21;101590.81;;;28.22;44.59
20630;BME280;17386;43.846;25.950;2022-07-17T08:09:46;101588.94;;;28.32;45.58
20630;BME280;17386;43.846;25.950;2022-07-17T08:12:11;101602.00;;;28.39;43.10
20630;BME280;17386;43.846;25.950;2022-07-17T08:14:37;101606.28;;;28.41;43.57
20630;BME280;17386;43.846;25.950;2022-07-17T08:17:02;101605.84;;;28.46;44.58
20630;BME280;17386;43.846;25.950;2022-07-17T08:19:28;101610.88;;;28.50;43.75
20630;BME280;17386;43.846;25.950;2022-07-17T08:21:53;101607.91;;;28.71;43.98
20630;BME280;17386;43.846;25.950;2022-07-17T08:24:19;101594.06;;;28.73;42.90
20630;BME280;17386;43.846;25.950;2022-07-17T08:26:44;101593.00;;;28.83;43.97
20630;BME280;17386;43.846;25.950;2022-07-17T08:29:09;101597.63;;;29.10;43.54
20630;BME280;17386;43.846;25.950;2022-07-17T08:31:35;101605.59;;;29.22;40.89
20630;BME280;17386;43.846;25.950;2022-07-17T08:34:00;101607.31;;;29.40;40.89
20630;BME280;17386;43.846;25.950;2022-07-17T08:36:26;101594.59;;;29.67;39.11
20630;BME280;17386;43.846;25.950;2022-07-17T08:38:52;101600.09;;;29.93;37.26
20630;BME280;17386;43.846;25.950;2022-07-17T08:41:17;101597.16;;;30.12;35.23
20630;BME280;17386;43.846;25.950;2022-07-17T08:43:47;101599.59;;;30.15;34.33
20630;BME280;17386;43.846;25.950;2022-07-17T08:46:14;101596.59;;;30.27;34.13
20630;BME280;17386;43.846;25.950;2022-07-17T08:48:42;101590.50;;;30.41;34.86
20630;BME280;17386;43.846;25.950;2022-07-17T08:51:09;101579.88;;;30.46;34.60
20630;BME280;17386;43.846;25.950;2022-07-17T08:53:36;101586.28;;;30.55;34.71
20630;BME280;17386;43.846;25.950;2022-07-17T08:56:02;101579.34;;;30.68;34.27
20630;BME280;17386;43.846;25.950;2022-07-17T08:58:29;101571.63;;;30.80;32.89
20630;BME280;17386;43.846;25.950;2022-07-17T09:00:54;101564.13;;;30.90;32.91
20630;BME280;17386;43.846;25.950;2022-07-17T09:03:19;101574.28;;;31.06;32.51
20630;BME280;17386;43.846;25.950;2022-07-17T09:05:46;101571.34;;;30.91;32.71
20630;BME280;17386;43.846;25.950;2022-07-17T09:08:21;101558.53;;;30.66;33.38
20630;BME280;17386;43.846;25.950;2022-07-17T09:10:48;101569.41;;;30.75;33.60
20630;BME280;17386;43.846;25.950;2022-07-17T09:15:52;101564.78;;;30.68;34.02
20630;BME280;17386;43.846;25.950;2022-07-17T09:18:18;101556.19;;;30.71;34.28
20630;BME280;17386;43.846;25.950;2022-07-17T09:20:49;101559.63;;;30.81;34.47
20630;BME280;17386;43.846;25.950;2022-07-17T09:23:16;101549.22;;;31.01;34.50
20630;BME280;17386;43.846;25.950;2022-07-17T09:25:45;101549.28;;;31.17;33.92
20630;BME280;17386;43.846;25.950;2022-07-17T09:28:13;101553.34;;;30.97;34.28
20630;BME280;17386;43.846;25.950;2022-07-17T09:30:42;101550.09;;;31.01;34.47
20630;BME280;17386;43.846;25.950;2022-07-17T09:33:12;101549.31;;;31.25;34.60
20630;BME280;17386;43.846;25.950;2022-07-17T09:36:06;101546.03;;;31.63;33.74
20630;BME280;17386;43.846;25.950;2022-07-17T09:38:39;101548.78;;;31.63;32.49
20630;BME280;17386;43.846;25.950;2022-07-17T09:41:11;101548.44;;;31.74;33.10
20630;BME280;17386;43.846;25.950;2022-07-17T09:46:15;101534.00;;;31.64;33.52
20630;BME280;17386;43.846;25.950;2022-07-17T09:48:43;101541.22;;;31.89;33.34
20630;BME280;17386;43.846;25.950;2022-07-17T09:51:17;101543.91;;;32.13;32.32
20630;BME280;17386;43.846;25.950;2022-07-17T09:53:45;101547.84;;;32.11;32.99
20630;BME280;17386;43.846;25.950;2022-07-17T09:56:16;101536.91;;;32.03;32.81
20630;BME280;17386;43.846;25.950;2022-07-17T09:58:46;101540.00;;;32.00;32.41
20630;BME280;17386;43.846;25.950;2022-07-17T10:01:14;101534.06;;;32.27;32.07
20630;BME280;17386;43.846;25.950;2022-07-17T10:03:42;101530.63;;;32.42;31.40
20630;BME280;17386;43.846;25.950;2022-07-17T10:06:09;101527.72;;;32.74;30.08
20630;BME280;17386;43.846;25.950;2022-07-17T10:08:35;101522.69;;;33.09;29.10
20630;BME280;17386;43.846;25.950;2022-07-17T10:11:03;101518.03;;;33.09;28.60
20630;BME280;17386;43.846;25.950;2022-07-17T10:13:30;101522.38;;;33.04;29.25
20630;BME280;17386;43.846;25.950;2022-07-17T10:15:56;101516.53;;;33.21;28.58
20630;BME280;17386;43.846;25.950;2022-07-17T10:18:42;101514.22;;;33.33;28.07
20630;BME280;17386;43.846;25.950;2022-07-17T10:21:16;101516.56;;;33.44;28.27
20630;BME280;17386;43.846;25.950;2022-07-17T10:29:08;101504.50;;;32.69;29.45
20630;BME280;17386;43.846;25.950;2022-07-17T10:31:34;101505.47;;;33.53;27.55
20630;BME280;17386;43.846;25.950;2022-07-17T10:34:04;101491.84;;;34.48;26.54
20630;BME280;17386;43.846;25.950;2022-07-17T10:36:41;101491.97;;;34.25;25.75
20630;BME280;17386;43.846;25.950;2022-07-17T10:39:25;101500.63;;;34.73;25.14
20630;BME280;17386;43.846;25.950;2022-07-17T10:42:00;101492.63;;;34.99;24.23
20630;BME280;17386;43.846;25.950;2022-07-17T10:44:29;101500.44;;;34.74;23.50
20630;BME280;17386;43.846;25.950;2022-07-17T10:46:55;101488.09;;;35.13;22.08
20630;BME280;17386;43.846;25.950;2022-07-17T10:49:25;101484.59;;;36.03;21.29
20630;BME280;17386;43.846;25.950;2022-07-17T10:51:51;101485.56;;;36.85;20.14
20630;BME280;17386;43.846;25.950;2022-07-17T10:54:19;101485.88;;;37.56;20.26
20630;BME280;17386;43.846;25.950;2022-07-17T10:56:46;101487.47;;;38.17;20.64
20630;BME280;17386;43.846;25.950;2022-07-17T10:59:12;101478.44;;;38.35;19.16
20630;BME280;17386;43.846;25.950;2022-07-17T11:01:38;101463.94;;;39.09;18.08
20630;BME280;17386;43.846;25.950;2022-07-17T11:04:04;101460.38;;;39.95;17.41
20630;BME280;17386;43.846;25.950;2022-07-17T11:06:36;101467.88;;;39.95;17.31
20630;BME280;17386;43.846;25.950;2022-07-17T11:09:07;101460.28;;;40.38;16.96
20630;BME280;17386;43.846;25.950;2022-07-17T11:16:33;101449.34;;;39.20;17.44
20630;BME280;17386;43.846;25.950;2022-07-17T11:18:58;101450.75;;;38.98;17.58
20630;BME280;17386;43.846;25.950;2022-07-17T11:21:24;101452.47;;;38.99;17.54
20630;BME280;17386;43.846;25.950;2022-07-17T11:23:55;101450.56;;;39.49;17.63
20630;BME280;17386;43.846;25.950;2022-07-17T11:26:21;101441.88;;;39.64;17.28
20630;BME280;17386;43.846;25.950;2022-07-17T11:28:48;101439.63;;;39.73;16.99
20630;BME280;17386;43.846;25.950;2022-07-17T11:31:24;101434.22;;;39.09;17.27
20630;BME280;17386;43.846;25.950;2022-07-17T11:36:32;101425.56;;;38.99;17.23
20630;BME280;17386;43.846;25.950;2022-07-17T11:39:01;101427.41;;;38.36;18.15
20630;BME280;17386;43.846;25.950;2022-07-17T11:41:39;101409.06;;;37.83;18.38
20630;BME280;17386;43.846;25.950;2022-07-17T11:44:08;101420.44;;;37.35;19.28
20630;BME280;17386;43.846;25.950;2022-07-17T11:46:35;101415.53;;;37.04;19.51
20630;BME280;17386;43.846;25.950;2022-07-17T11:49:01;101414.97;;;36.41;19.80
20630;BME280;17386;43.846;25.950;2022-07-17T11:51:38;101413.53;;;35.97;20.80
20630;BME280;17386;43.846;25.950;2022-07-17T11:54:09;101402.59;;;35.89;21.21
20630;BME280;17386;43.846;25.950;2022-07-17T11:56:35;101399.78;;;35.82;20.54
20630;BME280;17386;43.846;25.950;2022-07-17T11:59:01;101396.69;;;35.29;20.70
20630;BME280;17386;43.846;25.950;2022-07-17T12:01:29;101388.44;;;35.36;20.94
20630;BME280;17386;43.846;25.950;2022-07-17T12:03:57;101395.38;;;35.25;21.13
20630;BME280;17386;43.846;25.950;2022-07-17T12:06:26;101398.25;;;35.11;21.69
20630;BME280;17386;43.846;25.950;2022-07-17T12:08:53;101398.66;;;35.07;21.74
20630;BME280;17386;43.846;25.950;2022-07-17T12:11:19;101390.38;;;35.07;21.65
20630;BME280;17386;43.846;25.950;2022-07-17T12:13:46;101376.16;;;34.89;21.82
20630;BME280;17386;43.846;25.950;2022-07-17T12:16:24;101379.13;;;34.88;22.01
20630;BME280;17386;43.846;25.950;2022-07-17T12:21:26;101384.25;;;34.69;22.41
20630;BME280;17386;43.846;25.950;2022-07-17T12:24:02;101382.06;;;34.86;21.97
20630;BME280;17386;43.846;25.950;2022-07-17T12:26:28;101372.06;;;35.06;21.68
20630;BME280;17386;43.846;25.950;2022-07-17T12:28:54;101367.66;;;35.12;21.12
20630;BME280;17386;43.846;25.950;2022-07-17T12:31:20;101369.50;;;35.05;21.02
20630;BME280;17386;43.846;25.950;2022-07-17T12:33:46;101369.63;;;35.18;21.64
20630;BME280;17386;43.846;25.950;2022-07-17T12:36:12;101354.56;;;35.21;21.54
20630;BME280;17386;43.846;25.950;2022-07-17T12:38:38;101360.53;;;35.24;20.96
20630;BME280;17386;43.846;25.950;2022-07-17T12:41:03;101356.97;;;35.30;20.45
20630;BME280;17386;43.846;25.950;2022-07-17T12:43:30;101359.16;;;35.14;20.54
20630;BME280;17386;43.846;25.950;2022-07-17T12:45:56;101350.53;;;34.95;20.57
20630;BME280;17386;43.846;25.950;2022-07-17T12:48:21;101350.06;;;34.92;20.80
20630;BME280;17386;43.846;25.950;2022-07-17T12:50:47;101355.78;;;34.90;20.69
20630;BME280;17386;43.846;25.950;2022-07-17T12:53:13;101353.31;;;34.95;20.37
20630;BME280;17386;43.846;25.950;2022-07-17T12:55:38;101334.31;;;35.14;20.76
20630;BME280;17386;43.846;25.950;2022-07-17T12:58:04;101331.16;;;35.17;20.57